sensor_id;sensor_type;location;lat;lon;timestamp;pressure;altitude;pressure_sealevel;temperature;humidity
78337;BME280;67610;51.588;7.002;2023-12-20T00:02:11;100749.91;;;9.62;81.30
78337;BME280;67610;51.588;7.002;2023-12-20T00:04:36;100753.50;;;9.61;82.19
78337;BME280;67610;51.588;7.002;2023-12-20T00:07:01;100746.56;;;9.60;81.47
78337;BME280;67610;51.588;7.002;2023-12-20T00:09:27;100748.50;;;9.58;80.90
78337;BME280;67610;51.588;7.002;2023-12-20T00:11:52;100752.41;;;9.54;81.16
78337;BME280;67610;51.588;7.002;2023-12-20T00:14:17;100762.91;;;9.54;81.61
78337;BME280;67610;51.588;7.002;2023-12-20T00:16:43;100767.47;;;9.52;80.81
78337;BME280;67610;51.588;7.002;2023-12-20T00:19:08;100758.50;;;9.45;80.92
78337;BME280;67610;51.588;7.002;2023-12-20T00:21:33;100768.88;;;9.37;80.83
78337;BME280;67610;51.588;7.002;2023-12-20T00:23:59;100764.19;;;9.31;81.17
78337;BME280;67610;51.588;7.002;2023-12-20T00:26:24;100775.38;;;9.23;81.30
78337;BME280;67610;51.588;7.002;2023-12-20T00:28:49;100772.50;;;9.17;81.16
78337;BME280;67610;51.588;7.002;2023-12-20T00:31:15;100771.13;;;9.12;80.66
78337;BME280;67610;51.588;7.002;2023-12-20T00:33:40;100773.75;;;9.12;81.11
78337;BME280;67610;51.588;7.002;2023-12-20T00:36:08;100776.94;;;9.06;80.46
78337;BME280;67610;51.588;7.002;2023-12-20T00:38:37;100780.91;;;9.01;81.23
78337;BME280;67610;51.588;7.002;2023-12-20T00:41:03;100776.94;;;8.97;81.47
78337;BME280;67610;51.588;7.002;2023-12-20T00:43:28;100790.16;;;8.95;81.67
78337;BME280;67610;51.588;7.002;2023-12-20T00:45:53;100802.59;;;8.93;81.64
78337;BME280;67610;51.588;7.002;2023-12-20T00:48:20;100798.72;;;8.97;81.70
78337;BME280;67610;51.588;7.002;2023-12-20T00:50:46;100799.84;;;8.95;81.62
78337;BME280;67610;51.588;7.002;2023-12-20T00:53:11;100793.06;;;8.92;81.20
78337;BME280;67610;51.588;7.002;2023-12-20T00:55:36;100789.88;;;8.98;81.67
78337;BME280;67610;51.588;7.002;2023-12-20T00:58:02;100794.03;;;9.01;81.14
78337;BME280;67610;51.588;7.002;2023-12-20T01:00:27;100784.09;;;9.04;81.20
78337;BME280;67610;51.588;7.002;2023-12-20T01:02:52;100781.75;;;9.01;80.90
78337;BME280;67610;51.588;7.002;2023-12-20T01:05:18;100791.69;;;8.98;80.65
78337;BME280;67610;51.588;7.002;2023-12-20T01:07:44;100789.63;;;9.01;80.97
78337;BME280;67610;51.588;7.002;2023-12-20T01:10:10;100790.31;;;9.03;80.98
78337;BME280;67610;51.588;7.002;2023-12-20T01:12:36;100790.84;;;8.97;80.71
78337;BME280;67610;51.588;7.002;2023-12-20T01:15:01;100790.59;;;9.00;80.63
78337;BME280;67610;51.588;7.002;2023-12-20T01:17:27;100800.13;;;9.11;79.49
78337;BME280;67610;51.588;7.002;2023-12-20T01:19:52;100793.19;;;9.00;80.13
78337;BME280;67610;51.588;7.002;2023-12-20T01:22:17;100804.78;;;8.98;79.41
78337;BME280;67610;51.588;7.002;2023-12-20T01:24:43;100813.63;;;8.87;79.80
78337;BME280;67610;51.588;7.002;2023-12-20T01:27:08;100800.09;;;8.82;79.98
78337;BME280;67610;51.588;7.002;2023-12-20T01:29:33;100807.53;;;8.77;80.15
78337;BME280;67610;51.588;7.002;2023-12-20T01:31:59;100801.88;;;8.72;80.03
78337;BME280;67610;51.588;7.002;2023-12-20T01:34:24;100802.69;;;8.73;79.95
78337;BME280;67610;51.588;7.002;2023-12-20T01:36:50;100806.41;;;8.61;79.49
78337;BME280;67610;51.588;7.002;2023-12-20T01:39:15;100809.72;;;8.53;79.88
78337;BME280;67610;51.588;7.002;2023-12-20T01:41:40;100810.22;;;8.47;80.12
78337;BME280;67610;51.588;7.002;2023-12-20T01:44:09;100801.41;;;8.48;80.51
78337;BME280;67610;51.588;7.002;2023-12-20T01:46:34;100803.75;;;8.51;80.20
78337;BME280;67610;51.588;7.002;2023-12-20T01:49:00;100790.91;;;8.38;80.18
78337;BME280;67610;51.588;7.002;2023-12-20T01:51:26;100796.13;;;8.38;80.44
78337;BME280;67610;51.588;7.002;2023-12-20T01:53:54;100790.75;;;8.40;80.72
78337;BME280;67610;51.588;7.002;2023-12-20T01:56:20;100792.03;;;8.46;80.31
78337;BME280;67610;51.588;7.002;2023-12-20T01:58:46;100806.75;;;8.37;79.82
78337;BME280;67610;51.588;7.002;2023-12-20T02:01:12;100797.66;;;8.41;80.21
78337;BME280;67610;51.588;7.002;2023-12-20T02:03:42;100804.00;;;8.38;79.50
78337;BME280;67610;51.588;7.002;2023-12-20T02:06:08;100811.81;;;8.29;79.81
78337;BME280;67610;51.588;7.002;2023-12-20T02:08:35;100793.41;;;8.19;80.18
78337;BME280;67610;51.588;7.002;2023-12-20T02:11:01;100806.78;;;8.16;80.13
78337;BME280;67610;51.588;7.002;2023-12-20T02:13:26;100806.91;;;8.15;80.63
78337;BME280;67610;51.588;7.002;2023-12-20T02:15:52;100806.78;;;8.16;80.78
78337;BME280;67610;51.588;7.002;2023-12-20T02:18:17;100800.31;;;8.20;80.67
78337;BME280;67610;51.588;7.002;2023-12-20T02:20:43;100802.44;;;8.26;80.29
78337;BME280;67610;51.588;7.002;2023-12-20T02:23:08;100802.56;;;8.25;80.76
78337;BME280;67610;51.588;7.002;2023-12-20T02:25:34;100808.25;;;8.30;80.10
78337;BME280;67610;51.588;7.002;2023-12-20T02:27:59;100794.88;;;8.33;80.38
78337;BME280;67610;51.588;7.002;2023-12-20T02:30:25;100802.28;;;8.28;80.38
78337;BME280;67610;51.588;7.002;2023-12-20T02:32:51;100798.88;;;8.27;80.47
78337;BME280;67610;51.588;7.002;2023-12-20T02:35:17;100809.09;;;8.40;80.27
78337;BME280;67610;51.588;7.002;2023-12-20T02:37:42;100801.94;;;8.42;79.37
78337;BME280;67610;51.588;7.002;2023-12-20T02:40:08;100800.81;;;8.35;79.81
78337;BME280;67610;51.588;7.002;2023-12-20T02:42:33;100806.88;;;8.35;79.79
78337;BME280;67610;51.588;7.002;2023-12-20T02:44:58;100802.44;;;8.26;79.36
78337;BME280;67610;51.588;7.002;2023-12-20T02:47:24;100795.75;;;8.13;79.98
78337;BME280;67610;51.588;7.002;2023-12-20T02:49:49;100802.06;;;8.10;79.89
78337;BME280;67610;51.588;7.002;2023-12-20T02:52:15;100795.94;;;8.00;80.66
78337;BME280;67610;51.588;7.002;2023-12-20T02:54:40;100800.53;;;8.08;80.58
78337;BME280;67610;51.588;7.002;2023-12-20T02:57:06;100800.97;;;8.13;80.16
78337;BME280;67610;51.588;7.002;2023-12-20T02:59:31;100805.34;;;8.03;80.25
78337;BME280;67610;51.588;7.002;2023-12-20T03:01:57;100800.25;;;8.01;80.78
78337;BME280;67610;51.588;7.002;2023-12-20T03:04:22;100798.16;;;8.05;80.75
78337;BME280;67610;51.588;7.002;2023-12-20T03:06:47;100802.75;;;8.12;80.37
78337;BME280;67610;51.588;7.002;2023-12-20T03:09:13;100799.69;;;8.07;79.96
78337;BME280;67610;51.588;7.002;2023-12-20T03:11:38;100794.06;;;8.12;79.75
78337;BME280;67610;51.588;7.002;2023-12-20T03:14:04;100793.38;;;8.10;80.25
78337;BME280;67610;51.588;7.002;2023-12-20T03:16:29;100793.13;;;8.13;79.88
78337;BME280;67610;51.588;7.002;2023-12-20T03:18:56;100805.09;;;8.06;79.72
78337;BME280;67610;51.588;7.002;2023-12-20T03:21:21;100795.16;;;8.00;79.84
78337;BME280;67610;51.588;7.002;2023-12-20T03:23:47;100793.88;;;7.94;79.81
78337;BME280;67610;51.588;7.002;2023-12-20T03:26:13;100800.88;;;7.94;79.76
78337;BME280;67610;51.588;7.002;2023-12-20T03:28:39;100790.34;;;7.84;79.70
78337;BME280;67610;51.588;7.002;2023-12-20T03:31:04;100785.97;;;7.85;80.03
78337;BME280;67610;51.588;7.002;2023-12-20T03:33:30;100799.13;;;7.73;79.63
78337;BME280;67610;51.588;7.002;2023-12-20T03:35:55;100785.75;;;7.67;80.46
78337;BME280;67610;51.588;7.002;2023-12-20T03:38:21;100788.97;;;7.80;79.67
78337;BME280;67610;51.588;7.002;2023-12-20T03:40:49;100791.13;;;7.75;79.54
78337;BME280;67610;51.588;7.002;2023-12-20T03:43:14;100794.84;;;7.72;79.61
78337;BME280;67610;51.588;7.002;2023-12-20T03:45:40;100790.00;;;7.68;79.72
78337;BME280;67610;51.588;7.002;2023-12-20T03:48:05;100780.59;;;7.65;79.50
78337;BME280;67610;51.588;7.002;2023-12-20T03:50:31;100780.06;;;7.62;79.83
78337;BME280;67610;51.588;7.002;2023-12-20T03:52:56;100789.69;;;7.61;80.02
78337;BME280;67610;51.588;7.002;2023-12-20T03:55:21;100784.75;;;7.68;79.65
78337;BME280;67610;51.588;7.002;2023-12-20T03:57:47;100792.50;;;7.69;79.96
78337;BME280;67610;51.588;7.002;2023-12-20T04:00:12;100794.53;;;7.66;80.06
78337;BME280;67610;51.588;7.002;2023-12-20T04:02:38;100790.13;;;7.66;80.12
78337;BME280;67610;51.588;7.002;2023-12-20T04:05:05;100782.13;;;7.68;79.53
78337;BME280;67610;51.588;7.002;2023-12-20T04:07:31;100787.59;;;7.55;79.64
78337;BME280;67610;51.588;7.002;2023-12-20T04:09:56;100780.91;;;7.42;80.18
78337;BME280;67610;51.588;7.002;2023-12-20T04:12:21;100782.84;;;7.49;80.38
78337;BME280;67610;51.588;7.002;2023-12-20T04:14:47;100775.00;;;7.49;80.20
78337;BME280;67610;51.588;7.002;2023-12-20T04:17:12;100774.75;;;7.52;80.31
78337;BME280;67610;51.588;7.002;2023-12-20T04:19:38;100771.19;;;7.53;80.33
78337;BME280;67610;51.588;7.002;2023-12-20T04:22:03;100777.81;;;7.57;80.23
78337;BME280;67610;51.588;7.002;2023-12-20T04:24:28;100770.72;;;7.69;79.60
78337;BME280;67610;51.588;7.002;2023-12-20T04:26:57;100774.81;;;7.62;79.83
78337;BME280;67610;51.588;7.002;2023-12-20T04:29:22;100772.75;;;7.65;80.06
78337;BME280;67610;51.588;7.002;2023-12-20T04:31:47;100782.41;;;7.65;80.12
78337;BME280;67610;51.588;7.002;2023-12-20T04:34:13;100783.38;;;7.64;79.80
78337;BME280;67610;51.588;7.002;2023-12-20T04:36:38;100780.88;;;7.62;79.78
78337;BME280;67610;51.588;7.002;2023-12-20T04:39:04;100788.47;;;7.65;80.16
78337;BME280;67610;51.588;7.002;2023-12-20T04:41:29;100782.28;;;7.66;79.45
78337;BME280;67610;51.588;7.002;2023-12-20T04:43:55;100781.06;;;7.70;79.52
78337;BME280;67610;51.588;7.002;2023-12-20T04:46:20;100781.91;;;7.71;79.50
78337;BME280;67610;51.588;7.002;2023-12-20T04:48:45;100783.69;;;7.70;79.50
78337;BME280;67610;51.588;7.002;2023-12-20T04:51:13;100793.28;;;7.60;79.92
78337;BME280;67610;51.588;7.002;2023-12-20T04:53:39;100793.00;;;7.63;79.63
78337;BME280;67610;51.588;7.002;2023-12-20T04:56:04;100792.75;;;7.66;79.51
78337;BME280;67610;51.588;7.002;2023-12-20T04:58:30;100785.81;;;7.56;79.46
78337;BME280;67610;51.588;7.002;2023-12-20T05:00:55;100787.38;;;7.68;79.28
78337;BME280;67610;51.588;7.002;2023-12-20T05:03:20;100784.78;;;7.47;79.60
78337;BME280;67610;51.588;7.002;2023-12-20T05:05:46;100772.06;;;7.43;80.05
78337;BME280;67610;51.588;7.002;2023-12-20T05:08:11;100776.91;;;7.47;80.16
78337;BME280;67610;51.588;7.002;2023-12-20T05:10:37;100777.63;;;7.49;80.17
78337;BME280;67610;51.588;7.002;2023-12-20T05:13:02;100778.22;;;7.53;80.08
78337;BME280;67610;51.588;7.002;2023-12-20T05:15:27;100786.91;;;7.53;80.00
78337;BME280;67610;51.588;7.002;2023-12-20T05:17:53;100778.91;;;7.55;80.01
78337;BME280;67610;51.588;7.002;2023-12-20T05:20:18;100786.91;;;7.53;79.80
78337;BME280;67610;51.588;7.002;2023-12-20T05:22:43;100782.28;;;7.46;80.22
78337;BME280;67610;51.588;7.002;2023-12-20T05:25:10;100782.22;;;7.36;80.61
78337;BME280;67610;51.588;7.002;2023-12-20T05:27:35;100770.53;;;7.40;80.75
78337;BME280;67610;51.588;7.002;2023-12-20T05:30:01;100759.69;;;7.45;80.04
78337;BME280;67610;51.588;7.002;2023-12-20T05:32:26;100762.97;;;7.58;79.63
78337;BME280;67610;51.588;7.002;2023-12-20T05:34:51;100758.56;;;7.58;79.64
78337;BME280;67610;51.588;7.002;2023-12-20T05:37:17;100761.13;;;7.49;79.87
78337;BME280;67610;51.588;7.002;2023-12-20T05:39:45;100754.06;;;7.49;80.13
78337;BME280;67610;51.588;7.002;2023-12-20T05:42:11;100762.75;;;7.50;80.24
78337;BME280;67610;51.588;7.002;2023-12-20T05:44:37;100763.72;;;7.49;79.78
78337;BME280;67610;51.588;7.002;2023-12-20T05:47:03;100760.97;;;7.50;80.14
78337;BME280;67610;51.588;7.002;2023-12-20T05:49:28;100756.69;;;7.49;80.04
78337;BME280;67610;51.588;7.002;2023-12-20T05:51:53;100768.44;;;7.55;79.50
78337;BME280;67610;51.588;7.002;2023-12-20T05:54:19;100772.06;;;7.63;79.59
78337;BME280;67610;51.588;7.002;2023-12-20T05:56:44;100767.50;;;7.56;79.59
78337;BME280;67610;51.588;7.002;2023-12-20T05:59:10;100767.22;;;7.38;80.31
78337;BME280;67610;51.588;7.002;2023-12-20T06:01:35;100767.91;;;7.40;80.70
78337;BME280;67610;51.588;7.002;2023-12-20T06:04:00;100757.53;;;7.50;80.71
78337;BME280;67610;51.588;7.002;2023-12-20T06:06:26;100762.44;;;7.64;80.51
78337;BME280;67610;51.588;7.002;2023-12-20T06:08:51;100749.78;;;7.69;79.92
78337;BME280;67610;51.588;7.002;2023-12-20T06:11:16;100762.03;;;7.68;79.15
78337;BME280;67610;51.588;7.002;2023-12-20T06:13:42;100771.66;;;7.68;79.44
78337;BME280;67610;51.588;7.002;2023-12-20T06:16:07;100768.25;;;7.67;79.38
78337;BME280;67610;51.588;7.002;2023-12-20T06:18:32;100768.56;;;7.74;79.44
78337;BME280;67610;51.588;7.002;2023-12-20T06:20:58;100759.16;;;7.71;79.59
78337;BME280;67610;51.588;7.002;2023-12-20T06:23:23;100769.09;;;7.78;79.29
78337;BME280;67610;51.588;7.002;2023-12-20T06:25:49;100774.63;;;7.74;79.11
78337;BME280;67610;51.588;7.002;2023-12-20T06:28:14;100768.41;;;7.75;79.24
78337;BME280;67610;51.588;7.002;2023-12-20T06:30:40;100768.84;;;7.81;79.26
78337;BME280;67610;51.588;7.002;2023-12-20T06:33:05;100770.44;;;7.93;79.00
78337;BME280;67610;51.588;7.002;2023-12-20T06:35:32;100765.84;;;7.85;78.36
78337;BME280;67610;51.588;7.002;2023-12-20T06:37:57;100770.63;;;7.80;78.75
78337;BME280;67610;51.588;7.002;2023-12-20T06:40:22;100778.69;;;7.88;78.29
78337;BME280;67610;51.588;7.002;2023-12-20T06:42:48;100779.38;;;7.90;78.87
78337;BME280;67610;51.588;7.002;2023-12-20T06:45:13;100775.69;;;7.93;78.77
78337;BME280;67610;51.588;7.002;2023-12-20T06:47:38;100775.38;;;7.86;79.30
78337;BME280;67610;51.588;7.002;2023-12-20T06:50:05;100769.75;;;7.91;79.36
78337;BME280;67610;51.588;7.002;2023-12-20T06:52:54;100774.75;;;8.03;78.30
78337;BME280;67610;51.588;7.002;2023-12-20T06:55:20;100772.13;;;8.03;78.20
78337;BME280;67610;51.588;7.002;2023-12-20T06:57:45;100773.22;;;8.01;78.31
78337;BME280;67610;51.588;7.002;2023-12-20T07:00:11;100771.00;;;7.96;78.23
78337;BME280;67610;51.588;7.002;2023-12-20T07:02:37;100772.66;;;7.97;78.35
78337;BME280;67610;51.588;7.002;2023-12-20T07:05:02;100771.81;;;7.97;77.98
78337;BME280;67610;51.588;7.002;2023-12-20T07:07:28;100763.28;;;7.95;78.40
78337;BME280;67610;51.588;7.002;2023-12-20T07:09:53;100759.13;;;7.92;78.61
78337;BME280;67610;51.588;7.002;2023-12-20T07:12:18;100754.88;;;8.01;78.72
78337;BME280;67610;51.588;7.002;2023-12-20T07:14:45;100756.44;;;8.13;78.07
78337;BME280;67610;51.588;7.002;2023-12-20T07:17:10;100751.47;;;8.10;77.36
78337;BME280;67610;51.588;7.002;2023-12-20T07:19:39;100759.75;;;8.15;77.87
78337;BME280;67610;51.588;7.002;2023-12-20T07:22:05;100762.97;;;8.18;77.17
78337;BME280;67610;51.588;7.002;2023-12-20T07:24:31;100765.13;;;8.13;77.15
78337;BME280;67610;51.588;7.002;2023-12-20T07:26:56;100773.00;;;8.13;77.45
78337;BME280;67610;51.588;7.002;2023-12-20T07:29:22;100762.97;;;8.18;77.83
78337;BME280;67610;51.588;7.002;2023-12-20T07:31:47;100771.69;;;8.28;77.11
78337;BME280;67610;51.588;7.002;2023-12-20T07:34:12;100765.78;;;8.36;76.21
78337;BME280;67610;51.588;7.002;2023-12-20T07:36:38;100769.72;;;8.21;76.60
78337;BME280;67610;51.588;7.002;2023-12-20T07:39:03;100770.66;;;8.20;76.87
78337;BME280;67610;51.588;7.002;2023-12-20T07:41:28;100772.06;;;8.24;76.97
78337;BME280;67610;51.588;7.002;2023-12-20T07:43:54;100762.41;;;8.24;76.75
78337;BME280;67610;51.588;7.002;2023-12-20T07:46:21;100774.97;;;8.21;76.67
78337;BME280;67610;51.588;7.002;2023-12-20T07:48:49;100771.06;;;8.15;76.92
78337;BME280;67610;51.588;7.002;2023-12-20T07:51:14;100763.47;;;8.12;77.19
78337;BME280;67610;51.588;7.002;2023-12-20T07:53:39;100774.25;;;8.19;77.37
78337;BME280;67610;51.588;7.002;2023-12-20T07:56:25;100782.94;;;8.19;nan
78337;BME280;67610;51.588;7.002;2023-12-20T07:58:51;100778.19;;;8.34;76.48
78337;BME280;67610;51.588;7.002;2023-12-20T08:01:16;100770.88;;;8.37;76.35
78337;BME280;67610;51.588;7.002;2023-12-20T08:03:43;100753.38;;;8.38;75.66
78337;BME280;67610;51.588;7.002;2023-12-20T08:06:08;100759.16;;;8.32;76.19
78337;BME280;67610;51.588;7.002;2023-12-20T08:08:34;100753.22;;;8.30;76.62
78337;BME280;67610;51.588;7.002;2023-12-20T08:10:59;100763.72;;;8.30;76.36
78337;BME280;67610;51.588;7.002;2023-12-20T08:13:26;100758.84;;;8.25;76.72
78337;BME280;67610;51.588;7.002;2023-12-20T08:15:52;100760.63;;;8.25;76.84
78337;BME280;67610;51.588;7.002;2023-12-20T08:18:17;100762.22;;;8.37;76.42
78337;BME280;67610;51.588;7.002;2023-12-20T08:20:43;100766.03;;;8.33;76.58
78337;BME280;67610;51.588;7.002;2023-12-20T08:23:08;100755.84;;;8.30;76.65
78337;BME280;67610;51.588;7.002;2023-12-20T08:25:34;100757.06;;;8.26;76.40
78337;BME280;67610;51.588;7.002;2023-12-20T08:27:59;100755.09;;;8.18;76.65
78337;BME280;67610;51.588;7.002;2023-12-20T08:30:24;100754.69;;;8.23;76.84
78337;BME280;67610;51.588;7.002;2023-12-20T08:32:50;100767.28;;;8.29;76.62
78337;BME280;67610;51.588;7.002;2023-12-20T08:35:15;100765.97;;;8.23;76.73
78337;BME280;67610;51.588;7.002;2023-12-20T08:37:41;100767.97;;;8.31;76.12
78337;BME280;67610;51.588;7.002;2023-12-20T08:40:07;100777.94;;;8.37;75.90
78337;BME280;67610;51.588;7.002;2023-12-20T08:42:32;100778.75;;;8.37;75.92
78337;BME280;67610;51.588;7.002;2023-12-20T08:44:58;100785.09;;;8.44;75.14
78337;BME280;67610;51.588;7.002;2023-12-20T08:47:24;100773.41;;;8.49;75.49
78337;BME280;67610;51.588;7.002;2023-12-20T08:49:49;100766.38;;;8.59;75.11
78337;BME280;67610;51.588;7.002;2023-12-20T08:52:15;100771.56;;;8.39;74.57
78337;BME280;67610;51.588;7.002;2023-12-20T08:54:40;100772.84;;;8.45;75.23
78337;BME280;67610;51.588;7.002;2023-12-20T08:57:07;100769.97;;;8.48;74.65
78337;BME280;67610;51.588;7.002;2023-12-20T08:59:33;100770.47;;;8.42;74.94
78337;BME280;67610;51.588;7.002;2023-12-20T09:01:58;100774.78;;;8.43;75.25
78337;BME280;67610;51.588;7.002;2023-12-20T09:04:24;100769.38;;;8.44;75.34
78337;BME280;67610;51.588;7.002;2023-12-20T09:06:49;100764.97;;;8.45;75.39
78337;BME280;67610;51.588;7.002;2023-12-20T09:09:14;100757.00;;;8.56;74.22
78337;BME280;67610;51.588;7.002;2023-12-20T09:11:40;100754.38;;;8.66;74.28
78337;BME280;67610;51.588;7.002;2023-12-20T09:14:05;100748.72;;;8.70;73.74
78337;BME280;67610;51.588;7.002;2023-12-20T09:16:31;100747.06;;;8.60;74.01
78337;BME280;67610;51.588;7.002;2023-12-20T09:18:59;100747.06;;;8.60;74.00
78337;BME280;67610;51.588;7.002;2023-12-20T09:21:24;100743.47;;;8.61;74.21
78337;BME280;67610;51.588;7.002;2023-12-20T09:23:50;100748.19;;;8.57;74.65
78337;BME280;67610;51.588;7.002;2023-12-20T09:26:16;100749.97;;;8.57;74.46
78337;BME280;67610;51.588;7.002;2023-12-20T09:28:41;100743.63;;;8.59;74.36
78337;BME280;67610;51.588;7.002;2023-12-20T09:31:07;100749.53;;;8.52;74.76
78337;BME280;67610;51.588;7.002;2023-12-20T09:33:35;100738.63;;;8.56;74.50
78337;BME280;67610;51.588;7.002;2023-12-20T09:36:00;100750.66;;;8.59;74.56
78337;BME280;67610;51.588;7.002;2023-12-20T09:38:26;100738.53;;;8.58;74.30
78337;BME280;67610;51.588;7.002;2023-12-20T09:40:51;100741.00;;;8.59;74.22
78337;BME280;67610;51.588;7.002;2023-12-20T09:43:19;100744.56;;;8.58;74.23
78337;BME280;67610;51.588;7.002;2023-12-20T09:45:47;100746.50;;;8.56;74.77
78337;BME280;67610;51.588;7.002;2023-12-20T09:48:17;100744.56;;;8.58;75.08
78337;BME280;67610;51.588;7.002;2023-12-20T09:50:43;100743.50;;;8.70;74.09
78337;BME280;67610;51.588;7.002;2023-12-20T09:53:10;100745.44;;;8.78;74.19
78337;BME280;67610;51.588;7.002;2023-12-20T09:55:37;100740.19;;;8.78;73.56
78337;BME280;67610;51.588;7.002;2023-12-20T09:58:03;100743.34;;;8.91;74.84
78337;BME280;67610;51.588;7.002;2023-12-20T10:00:28;100755.09;;;8.96;73.61
78337;BME280;67610;51.588;7.002;2023-12-20T10:02:58;100751.78;;;8.94;73.42
78337;BME280;67610;51.588;7.002;2023-12-20T10:05:31;100753.16;;;8.89;73.51
78337;BME280;67610;51.588;7.002;2023-12-20T10:07:57;100755.09;;;8.77;73.59
78337;BME280;67610;51.588;7.002;2023-12-20T10:10:22;100745.44;;;8.78;74.27
78337;BME280;67610;51.588;7.002;2023-12-20T10:13:05;100754.13;;;8.78;74.38
78337;BME280;67610;51.588;7.002;2023-12-20T10:15:35;100760.34;;;8.77;74.54
78337;BME280;67610;51.588;7.002;2023-12-20T10:18:01;100755.91;;;8.68;75.08
78337;BME280;67610;51.588;7.002;2023-12-20T10:20:28;100752.72;;;8.74;75.43
78337;BME280;67610;51.588;7.002;2023-12-20T10:22:57;100752.34;;;8.69;75.90
78337;BME280;67610;51.588;7.002;2023-12-20T10:25:23;100736.59;;;8.69;75.91
78337;BME280;67610;51.588;7.002;2023-12-20T10:27:50;100733.16;;;8.78;75.88
78337;BME280;67610;51.588;7.002;2023-12-20T10:30:33;100730.25;;;8.81;75.45
78337;BME280;67610;51.588;7.002;2023-12-20T10:32:58;100728.59;;;8.90;74.93
78337;BME280;67610;51.588;7.002;2023-12-20T10:35:24;100735.47;;;8.81;75.30
78337;BME280;67610;51.588;7.002;2023-12-20T10:37:50;100735.50;;;8.91;75.32
78337;BME280;67610;51.588;7.002;2023-12-20T10:40:16;100737.28;;;8.90;74.76
78337;BME280;67610;51.588;7.002;2023-12-20T10:42:42;100734.94;;;8.87;75.25
78337;BME280;67610;51.588;7.002;2023-12-20T10:45:08;100725.28;;;8.78;75.17
78337;BME280;67610;51.588;7.002;2023-12-20T10:47:34;100719.75;;;8.81;75.33
78337;BME280;67610;51.588;7.002;2023-12-20T10:50:01;100721.97;;;8.95;74.82
78337;BME280;67610;51.588;7.002;2023-12-20T10:52:32;100717.13;;;9.00;74.60
78337;BME280;67610;51.588;7.002;2023-12-20T10:54:57;100715.88;;;9.04;74.58
78337;BME280;67610;51.588;7.002;2023-12-20T10:57:26;100717.97;;;9.10;74.34
78337;BME280;67610;51.588;7.002;2023-12-20T10:59:54;100720.59;;;9.01;74.31
78337;BME280;67610;51.588;7.002;2023-12-20T11:02:19;100725.56;;;9.04;74.29
78337;BME280;67610;51.588;7.002;2023-12-20T11:05:22;100726.78;;;9.09;74.52
78337;BME280;67610;51.588;7.002;2023-12-20T11:07:57;100722.78;;;9.05;74.09
78337;BME280;67610;51.588;7.002;2023-12-20T11:10:30;100730.50;;;9.17;74.03
78337;BME280;67610;51.588;7.002;2023-12-20T11:13:23;100720.00;;;9.17;74.32
78337;BME280;67610;51.588;7.002;2023-12-20T11:15:52;100729.25;;;9.21;73.86
78337;BME280;67610;51.588;7.002;2023-12-20T11:18:17;100726.09;;;9.27;74.27
78337;BME280;67610;51.588;7.002;2023-12-20T11:20:43;100707.03;;;9.25;74.17
78337;BME280;67610;51.588;7.002;2023-12-20T11:23:09;100727.47;;;9.11;74.34
78337;BME280;67610;51.588;7.002;2023-12-20T11:25:54;100714.06;;;9.14;74.66
78337;BME280;67610;51.588;7.002;2023-12-20T11:28:22;100706.88;;;9.17;74.50
78337;BME280;67610;51.588;7.002;2023-12-20T11:30:50;100690.44;;;9.24;74.63
78337;BME280;67610;51.588;7.002;2023-12-20T11:33:16;100706.03;;;9.26;74.64
78337;BME280;67610;51.588;7.002;2023-12-20T11:35:46;100702.88;;;9.22;74.98
78337;BME280;67610;51.588;7.002;2023-12-20T11:38:13;100708.97;;;9.23;75.36
78337;BME280;67610;51.588;7.002;2023-12-20T11:40:41;100712.13;;;9.26;75.09
78337;BME280;67610;51.588;7.002;2023-12-20T11:43:06;100694.31;;;9.20;74.98
78337;BME280;67610;51.588;7.002;2023-12-20T11:45:33;100680.91;;;9.13;75.73
78337;BME280;67610;51.588;7.002;2023-12-20T11:48:01;100701.63;;;9.17;75.82
78337;BME280;67610;51.588;7.002;2023-12-20T11:50:27;100694.03;;;9.23;75.58
78337;BME280;67610;51.588;7.002;2023-12-20T11:52:53;100699.97;;;9.25;75.95
78337;BME280;67610;51.588;7.002;2023-12-20T11:55:23;100687.41;;;9.29;75.75
78337;BME280;67610;51.588;7.002;2023-12-20T11:57:50;100688.91;;;9.31;75.15
78337;BME280;67610;51.588;7.002;2023-12-20T12:00:16;100692.66;;;9.29;75.32
78337;BME280;67610;51.588;7.002;2023-12-20T12:02:41;100675.13;;;9.20;75.61
78337;BME280;67610;51.588;7.002;2023-12-20T12:05:07;100675.25;;;9.18;76.08
78337;BME280;67610;51.588;7.002;2023-12-20T12:07:34;100679.97;;;9.14;76.14
78337;BME280;67610;51.588;7.002;2023-12-20T12:09:59;100670.84;;;9.19;76.54
78337;BME280;67610;51.588;7.002;2023-12-20T12:12:25;100664.06;;;9.16;76.35
78337;BME280;67610;51.588;7.002;2023-12-20T12:14:52;100662.00;;;9.20;76.76
78337;BME280;67610;51.588;7.002;2023-12-20T12:17:18;100663.38;;;9.24;76.51
78337;BME280;67610;51.588;7.002;2023-12-20T12:19:43;100661.44;;;9.26;76.11
78337;BME280;67610;51.588;7.002;2023-12-20T12:22:15;100657.53;;;9.30;76.10
78337;BME280;67610;51.588;7.002;2023-12-20T12:24:46;100666.25;;;9.30;75.81
78337;BME280;67610;51.588;7.002;2023-12-20T12:27:13;100662.25;;;9.26;76.02
78337;BME280;67610;51.588;7.002;2023-12-20T12:29:39;100662.09;;;9.28;75.84
78337;BME280;67610;51.588;7.002;2023-12-20T12:32:06;100662.00;;;9.20;76.40
78337;BME280;67610;51.588;7.002;2023-12-20T12:34:35;100658.28;;;9.22;76.28
78337;BME280;67610;51.588;7.002;2023-12-20T12:37:01;100665.03;;;9.25;76.16
78337;BME280;67610;51.588;7.002;2023-12-20T12:39:27;100653.16;;;9.21;76.19
78337;BME280;67610;51.588;7.002;2023-12-20T12:41:55;100649.28;;;9.25;76.78
78337;BME280;67610;51.588;7.002;2023-12-20T12:44:20;100657.84;;;9.27;76.38
78337;BME280;67610;51.588;7.002;2023-12-20T12:46:49;100649.28;;;9.25;75.78
78337;BME280;67610;51.588;7.002;2023-12-20T12:49:19;100632.47;;;9.18;75.90
78337;BME280;67610;51.588;7.002;2023-12-20T12:51:45;100625.28;;;9.20;76.33
78337;BME280;67610;51.588;7.002;2023-12-20T12:54:10;100631.06;;;9.13;76.39
78337;BME280;67610;51.588;7.002;2023-12-20T12:56:36;100634.41;;;9.16;76.45